createdAt,value
2017-05-31T00:00:36.461Z,19.70
2017-05-31T00:03:06.675Z,19.80
2017-05-31T00:05:36.867Z,19.80
2017-05-31T00:08:06.891Z,19.80
2017-05-31T00:10:37.095Z,19.70
2017-05-31T00:13:07.287Z,19.80
2017-05-31T00:15:37.506Z,19.80
2017-05-31T00:18:07.694Z,19.70
2017-05-31T00:20:37.916Z,19.70
2017-05-31T00:23:08.107Z,19.80
2017-05-31T00:25:38.316Z,19.70
2017-05-31T00:28:08.502Z,19.80
2017-05-31T00:30:38.711Z,19.80
2017-05-31T00:33:08.703Z,19.80
2017-05-31T00:35:38.901Z,19.80
2017-05-31T00:38:09.108Z,19.80
2017-05-31T00:40:39.323Z,19.60
2017-05-31T00:43:09.550Z,19.60
2017-05-31T00:45:39.767Z,19.60
2017-05-31T00:48:09.953Z,19.60
2017-05-31T00:50:40.162Z,19.60
2017-05-31T00:53:10.365Z,19.50
2017-05-31T00:55:40.565Z,19.60
2017-05-31T00:58:10.792Z,19.50
2017-05-31T01:00:40.940Z,19.60
2017-05-31T01:03:11.123Z,19.60
2017-05-31T01:05:41.343Z,19.60
2017-05-31T01:08:11.547Z,19.60
2017-05-31T01:10:41.753Z,19.60
2017-05-31T01:13:11.941Z,19.70
2017-05-31T01:15:42.159Z,19.70
2017-05-31T01:18:12.420Z,19.50
2017-05-31T01:20:42.274Z,19.40
2017-05-31T01:23:12.283Z,19.40
2017-05-31T01:25:42.535Z,19.40
2017-05-31T01:28:12.706Z,19.30
2017-05-31T01:30:42.915Z,19.30
2017-05-31T01:33:13.114Z,19.20
2017-05-31T01:35:42.983Z,19.10
2017-05-31T01:38:13.172Z,19.00
2017-05-31T01:40:43.388Z,19.00
2017-05-31T01:43:13.244Z,18.90
2017-05-31T01:45:43.028Z,18.80
2017-05-31T01:48:13.254Z,18.80
2017-05-31T01:50:43.254Z,18.80
2017-05-31T01:53:13.735Z,18.70
2017-05-31T01:55:44.198Z,18.70
2017-05-31T01:58:14.684Z,18.60
2017-05-31T02:00:45.152Z,18.60
2017-05-31T02:03:15.447Z,18.60
2017-05-31T02:05:45.649Z,18.60
2017-05-31T02:08:16.144Z,18.60
2017-05-31T02:10:46.619Z,18.60
2017-05-31T02:13:17.102Z,18.60
2017-05-31T02:15:47.279Z,18.60
2017-05-31T02:18:17.783Z,18.50
2017-05-31T02:20:48.236Z,18.50
2017-05-31T02:23:18.458Z,18.50
2017-05-31T02:25:48.648Z,18.50
2017-05-31T02:28:19.138Z,18.40
2017-05-31T02:30:49.599Z,18.40
2017-05-31T02:33:20.123Z,18.30
2017-05-31T02:35:50.578Z,18.30
2017-05-31T02:38:21.088Z,18.30
2017-05-31T02:40:51.548Z,18.30
2017-05-31T02:43:21.699Z,18.30
2017-05-31T02:45:52.168Z,18.30
2017-05-31T02:48:22.649Z,18.30
2017-05-31T02:50:53.304Z,18.30
2017-05-31T02:53:23.831Z,18.30
2017-05-31T02:55:54.348Z,18.20
2017-05-31T02:58:24.861Z,18.10
2017-05-31T03:00:55.329Z,18.00
2017-05-31T03:03:25.813Z,18.10
2017-05-31T03:05:56.271Z,18.10
2017-05-31T03:08:26.756Z,18.20
2017-05-31T03:10:57.225Z,18.20
2017-05-31T03:13:27.727Z,18.20
2017-05-31T03:15:58.190Z,18.20
2017-05-31T03:18:28.695Z,18.20
2017-05-31T03:20:59.172Z,18.30
2017-05-31T03:23:29.656Z,18.30
2017-05-31T03:26:00.129Z,18.20
2017-05-31T03:28:30.609Z,18.30
2017-05-31T03:31:01.067Z,18.40
2017-05-31T03:33:31.552Z,18.30
2017-05-31T03:36:02.011Z,18.20
2017-05-31T03:38:32.499Z,18.20
2017-05-31T03:41:02.974Z,18.10
2017-05-31T03:43:33.463Z,18.00
2017-05-31T03:46:03.932Z,18.00
2017-05-31T03:48:34.428Z,18.00
2017-05-31T03:51:04.908Z,18.00
2017-05-31T03:53:35.483Z,18.00
2017-05-31T03:56:05.954Z,18.00
2017-05-31T03:58:36.464Z,17.90
2017-05-31T04:01:06.947Z,17.90
2017-05-31T04:03:37.418Z,18.00
2017-05-31T04:06:07.888Z,18.00
2017-05-31T04:08:38.379Z,17.90
2017-05-31T04:11:08.848Z,17.90
2017-05-31T04:13:39.355Z,17.90
2017-05-31T04:16:09.856Z,17.90
2017-05-31T04:18:40.364Z,17.80
2017-05-31T04:21:10.856Z,17.70
2017-05-31T04:23:41.340Z,17.70
2017-05-31T04:26:11.824Z,17.70
2017-05-31T04:28:42.320Z,17.70
2017-05-31T04:31:12.840Z,17.80
2017-05-31T04:33:43.359Z,17.90
2017-05-31T04:36:13.844Z,17.90
2017-05-31T04:38:44.345Z,17.80
2017-05-31T04:41:14.816Z,17.80
2017-05-31T04:43:45.315Z,17.70
2017-05-31T04:46:15.788Z,17.80
2017-05-31T04:48:46.283Z,17.90
2017-05-31T04:51:16.754Z,17.90
2017-05-31T04:53:47.239Z,17.80
2017-05-31T04:56:17.712Z,17.80
2017-05-31T04:58:48.212Z,17.80
2017-05-31T05:01:18.697Z,17.80
2017-05-31T05:03:49.193Z,18.00
2017-05-31T05:06:19.665Z,17.90
2017-05-31T05:08:50.152Z,17.90
2017-05-31T05:11:20.630Z,17.80
2017-05-31T05:13:51.118Z,17.90
2017-05-31T05:16:21.674Z,18.00
2017-05-31T05:18:52.167Z,17.80
2017-05-31T05:21:22.674Z,17.80
2017-05-31T05:23:53.159Z,17.80
2017-05-31T05:26:23.640Z,17.90
2017-05-31T05:28:54.165Z,18.00
2017-05-31T05:31:24.671Z,18.10
2017-05-31T05:33:55.155Z,18.10
2017-05-31T05:36:25.633Z,18.10
2017-05-31T05:38:56.200Z,18.40
2017-05-31T05:41:26.681Z,18.60
2017-05-31T05:43:56.902Z,18.90
2017-05-31T05:46:27.377Z,19.30
2017-05-31T05:48:57.587Z,19.30
2017-05-31T05:51:27.801Z,19.10
2017-05-31T05:53:58.031Z,19.00
2017-05-31T05:56:28.221Z,19.10
2017-05-31T05:58:58.453Z,19.40
2017-05-31T06:01:28.656Z,19.60
2017-05-31T06:03:58.843Z,20.00
2017-05-31T06:06:29.225Z,20.00
2017-05-31T06:08:59.487Z,20.10
2017-05-31T06:11:29.678Z,20.00
2017-05-31T06:13:59.867Z,20.20
2017-05-31T06:16:30.068Z,20.50
2017-05-31T06:19:00.256Z,20.70
2017-05-31T06:21:30.472Z,20.70
2017-05-31T06:24:00.655Z,20.60
2017-05-31T06:26:30.864Z,20.50
2017-05-31T06:29:01.066Z,20.00
2017-05-31T06:31:31.291Z,19.50
2017-05-31T06:34:01.480Z,19.50
2017-05-31T06:36:31.704Z,19.70
2017-05-31T06:39:01.916Z,19.80
2017-05-31T06:41:32.121Z,19.90
2017-05-31T06:44:02.311Z,20.30
2017-05-31T06:46:32.169Z,20.80
2017-05-31T06:49:02.368Z,21.20
2017-05-31T06:51:32.590Z,20.90
2017-05-31T06:54:02.812Z,20.90
2017-05-31T06:56:33.052Z,21.00
2017-05-31T06:59:03.228Z,21.00
2017-05-31T07:01:33.441Z,21.20
2017-05-31T07:04:03.639Z,21.60
2017-05-31T07:06:33.828Z,21.70
2017-05-31T07:09:03.688Z,21.50
2017-05-31T07:11:33.871Z,21.90
2017-05-31T07:14:04.069Z,21.60
2017-05-31T07:16:34.257Z,21.20
2017-05-31T07:19:04.465Z,21.30
2017-05-31T07:21:34.648Z,22.00
2017-05-31T07:24:05.056Z,22.50
2017-05-31T07:26:35.252Z,22.10
2017-05-31T07:29:05.451Z,21.10
2017-05-31T07:31:35.663Z,20.40
2017-05-31T07:34:07.016Z,20.20
2017-05-31T07:36:37.233Z,19.80
2017-05-31T07:39:07.436Z,19.90
2017-05-31T07:41:37.655Z,19.60
2017-05-31T07:44:07.842Z,19.50
2017-05-31T07:46:38.059Z,19.80
2017-05-31T07:49:08.268Z,20.40
2017-05-31T07:51:38.470Z,21.00
2017-05-31T07:54:08.653Z,20.80
2017-05-31T07:56:38.851Z,19.90
2017-05-31T07:59:09.040Z,20.30
2017-05-31T08:01:39.357Z,21.40
2017-05-31T08:04:09.547Z,22.40
2017-05-31T08:06:39.751Z,22.70
2017-05-31T08:09:09.937Z,22.50
2017-05-31T08:11:40.210Z,21.80
2017-05-31T08:14:10.374Z,21.70
2017-05-31T08:16:40.588Z,22.10
2017-05-31T08:19:10.767Z,22.50
2017-05-31T08:21:40.959Z,22.70
2017-05-31T08:24:10.812Z,23.90
2017-05-31T08:26:41.026Z,23.90
2017-05-31T08:29:11.203Z,23.30
2017-05-31T08:31:41.401Z,22.20
2017-05-31T08:34:11.589Z,21.40
2017-05-31T08:36:41.823Z,21.00
2017-05-31T08:39:12.028Z,20.50
2017-05-31T08:41:42.269Z,20.90
2017-05-31T08:44:12.480Z,22.00
2017-05-31T08:46:42.683Z,23.00
2017-05-31T08:49:12.890Z,24.00
2017-05-31T08:51:43.083Z,24.30
2017-05-31T08:54:13.291Z,24.60
2017-05-31T08:56:43.482Z,24.90
2017-05-31T08:59:13.691Z,24.50
2017-05-31T09:01:43.871Z,23.60
2017-05-31T09:04:14.066Z,23.60
2017-05-31T09:06:44.243Z,24.50
2017-05-31T09:09:14.432Z,24.80
2017-05-31T09:11:44.616Z,25.10
2017-05-31T09:14:14.828Z,25.40
2017-05-31T09:16:45.001Z,25.30
2017-05-31T09:19:15.201Z,24.70
2017-05-31T09:21:45.389Z,24.50
2017-05-31T09:24:15.399Z,23.80
2017-05-31T09:26:45.588Z,23.10
2017-05-31T09:29:15.784Z,23.30
2017-05-31T09:31:45.968Z,23.70
2017-05-31T09:34:16.170Z,24.20
2017-05-31T09:36:46.365Z,25.20
2017-05-31T09:39:16.598Z,26.10
2017-05-31T09:41:46.775Z,25.10
2017-05-31T09:44:16.968Z,24.80
2017-05-31T09:46:47.153Z,24.40
2017-05-31T09:49:17.352Z,23.50
2017-05-31T09:51:47.519Z,23.10
2017-05-31T09:54:17.747Z,22.60
2017-05-31T09:56:47.934Z,23.00
2017-05-31T09:59:18.123Z,24.10
2017-05-31T10:01:48.300Z,24.80
2017-05-31T10:04:18.514Z,24.30
2017-05-31T10:06:48.704Z,23.80
2017-05-31T10:09:18.932Z,23.30
2017-05-31T10:11:55.029Z,23.30
2017-05-31T10:14:25.223Z,25.20
2017-05-31T10:16:55.400Z,25.50
2017-05-31T10:19:25.265Z,25.50
2017-05-31T10:21:55.439Z,26.30
2017-05-31T10:24:25.684Z,26.60
2017-05-31T10:26:55.867Z,27.40
2017-05-31T10:29:26.087Z,27.50
2017-05-31T10:31:56.284Z,27.70
2017-05-31T10:34:26.481Z,27.50
2017-05-31T10:36:56.680Z,26.40
2017-05-31T10:39:26.857Z,25.40
2017-05-31T10:41:57.059Z,25.90
2017-05-31T10:44:26.998Z,26.40
2017-05-31T10:46:57.618Z,26.70
2017-05-31T10:49:27.798Z,27.40
2017-05-31T10:51:57.987Z,28.00
2017-05-31T10:54:27.811Z,28.10
2017-05-31T10:56:58.011Z,27.50
2017-05-31T10:59:28.205Z,26.80
2017-05-31T11:01:58.404Z,27.10
2017-05-31T11:04:28.587Z,27.50
2017-05-31T11:06:58.788Z,28.70
2017-05-31T11:09:28.963Z,29.30
2017-05-31T11:11:59.147Z,27.40
2017-05-31T11:14:29.323Z,26.20
2017-05-31T11:16:59.708Z,25.40
2017-05-31T11:19:29.892Z,24.60
2017-05-31T11:22:00.392Z,24.10
2017-05-31T11:24:30.563Z,24.80
2017-05-31T11:27:00.797Z,26.20
2017-05-31T11:29:30.979Z,28.30
2017-05-31T11:32:01.163Z,28.90
2017-05-31T11:34:31.394Z,29.00
2017-05-31T11:37:01.623Z,29.10
2017-05-31T11:39:31.835Z,29.50
2017-05-31T11:42:02.032Z,28.60
2017-05-31T11:44:32.227Z,28.40
2017-05-31T11:47:02.442Z,28.70
2017-05-31T11:49:32.672Z,28.50
2017-05-31T11:52:02.856Z,27.50
2017-05-31T11:54:33.050Z,27.30
2017-05-31T11:57:03.236Z,26.70
2017-05-31T11:59:33.440Z,26.80
2017-05-31T12:02:03.620Z,27.90
2017-05-31T12:04:33.825Z,28.40
2017-05-31T12:07:04.003Z,28.70
2017-05-31T12:09:34.204Z,29.30
2017-05-31T12:12:04.401Z,29.70
2017-05-31T12:14:34.612Z,28.70
2017-05-31T12:17:04.792Z,28.30
2017-05-31T12:19:34.984Z,29.00
2017-05-31T12:22:05.218Z,29.30
2017-05-31T12:24:35.411Z,29.40
2017-05-31T12:27:05.608Z,30.40
2017-05-31T12:29:35.810Z,29.60
2017-05-31T12:32:06.135Z,30.30
2017-05-31T12:34:36.312Z,31.10
2017-05-31T12:37:06.520Z,30.60
2017-05-31T12:39:36.702Z,30.30
2017-05-31T12:42:06.914Z,29.60
2017-05-31T12:44:37.094Z,30.00
2017-05-31T12:47:09.195Z,29.90
2017-05-31T12:49:39.637Z,29.40
2017-05-31T12:52:09.856Z,28.50
2017-05-31T12:54:39.716Z,28.30
2017-05-31T12:57:09.916Z,28.50
2017-05-31T12:59:40.114Z,27.80
2017-05-31T13:02:10.309Z,26.60
2017-05-31T13:04:40.479Z,27.20
2017-05-31T13:07:10.685Z,27.10
2017-05-31T13:09:40.871Z,27.90
2017-05-31T13:12:11.063Z,28.50
2017-05-31T13:14:41.276Z,29.00
2017-05-31T13:17:11.561Z,29.70
2017-05-31T13:19:41.780Z,29.30
2017-05-31T13:22:11.955Z,29.60
2017-05-31T13:24:42.147Z,30.60
2017-05-31T13:27:12.323Z,31.20
2017-05-31T13:29:42.528Z,30.90
2017-05-31T13:32:12.702Z,30.90
2017-05-31T13:34:42.961Z,31.40
2017-05-31T13:37:13.119Z,30.90
2017-05-31T13:39:43.325Z,30.20
2017-05-31T13:42:13.504Z,30.50
2017-05-31T13:44:43.720Z,28.90
2017-05-31T13:47:13.935Z,28.80
2017-05-31T13:49:44.137Z,30.00
2017-05-31T13:52:14.338Z,30.60
2017-05-31T13:54:44.600Z,30.80
2017-05-31T13:57:14.579Z,30.80
2017-05-31T13:59:44.835Z,30.00
2017-05-31T14:02:15.004Z,29.10
2017-05-31T14:04:45.191Z,29.80
2017-05-31T14:07:15.396Z,29.30
2017-05-31T14:09:45.584Z,29.20
2017-05-31T14:12:15.760Z,29.80
2017-05-31T14:14:45.967Z,30.10
2017-05-31T14:17:16.147Z,29.80
2017-05-31T14:19:46.337Z,28.80
2017-05-31T14:22:16.520Z,27.60
2017-05-31T14:24:46.729Z,27.10
2017-05-31T14:27:16.921Z,26.80
2017-05-31T14:29:47.111Z,26.60
2017-05-31T14:32:17.287Z,26.60
2017-05-31T14:34:47.476Z,26.50
2017-05-31T14:37:17.661Z,25.40
2017-05-31T14:39:47.856Z,25.20
2017-05-31T14:42:18.069Z,25.50
2017-05-31T14:44:48.238Z,25.70
2017-05-31T14:47:18.471Z,25.40
2017-05-31T14:49:48.642Z,25.40
2017-05-31T14:52:18.841Z,25.30
2017-05-31T14:54:49.032Z,25.40
2017-05-31T14:57:19.235Z,25.30
2017-05-31T14:59:49.412Z,25.20
2017-05-31T15:02:19.604Z,25.00
2017-05-31T15:04:49.915Z,24.90
2017-05-31T15:07:20.143Z,25.00
2017-05-31T15:09:50.310Z,25.00
2017-05-31T15:12:20.502Z,25.00
2017-05-31T15:14:50.727Z,24.80
2017-05-31T15:17:20.904Z,24.80
2017-05-31T15:19:51.072Z,24.50
2017-05-31T15:22:21.272Z,24.40
2017-05-31T15:24:51.447Z,24.50
2017-05-31T15:27:21.658Z,24.50
2017-05-31T15:29:51.857Z,24.40
2017-05-31T15:32:22.040Z,24.40
2017-05-31T15:34:52.217Z,24.50
2017-05-31T15:37:22.409Z,24.50
2017-05-31T15:39:52.596Z,24.50
2017-05-31T15:42:22.839Z,24.50
2017-05-31T15:44:53.023Z,24.40
2017-05-31T15:47:23.212Z,24.40
2017-05-31T15:49:53.409Z,24.40
2017-05-31T15:52:23.624Z,24.40
2017-05-31T15:54:53.811Z,24.50
2017-05-31T15:57:24.004Z,24.00
2017-05-31T15:59:54.228Z,23.80
2017-05-31T16:02:24.406Z,23.90
2017-05-31T16:04:54.614Z,23.90
2017-05-31T16:07:24.791Z,24.00
2017-05-31T16:09:55.003Z,23.90
2017-05-31T16:12:25.176Z,24.00
2017-05-31T16:14:55.412Z,23.90
2017-05-31T16:17:25.624Z,23.80
2017-05-31T16:19:55.820Z,23.80
2017-05-31T16:22:26.001Z,23.70
2017-05-31T16:24:56.195Z,23.30
2017-05-31T16:27:26.411Z,23.50
2017-05-31T16:29:56.638Z,23.60
2017-05-31T16:32:26.800Z,23.70
2017-05-31T16:34:56.999Z,23.80
2017-05-31T16:37:27.168Z,23.60
2017-05-31T16:39:57.372Z,23.40
2017-05-31T16:42:27.548Z,23.40
2017-05-31T16:44:57.740Z,23.30
2017-05-31T16:50:10.565Z,23.10
2017-05-31T16:52:40.548Z,23.10
2017-05-31T16:55:10.732Z,23.10
2017-05-31T16:57:40.919Z,23.10
2017-05-31T17:00:11.171Z,23.10
2017-05-31T17:02:41.436Z,23.20
2017-05-31T17:05:11.614Z,23.20
2017-05-31T17:07:41.839Z,23.10
2017-05-31T17:10:12.018Z,23.00
2017-05-31T17:12:42.232Z,22.90
2017-05-31T17:15:12.422Z,22.70
2017-05-31T17:17:42.632Z,22.70
2017-05-31T17:20:12.820Z,22.60
2017-05-31T17:22:43.012Z,22.50
2017-05-31T17:25:13.242Z,22.40
2017-05-31T17:27:43.442Z,22.30
2017-05-31T17:30:13.646Z,22.30
2017-05-31T17:32:43.810Z,22.40
2017-05-31T17:35:14.004Z,22.30
2017-05-31T17:37:44.188Z,22.20
2017-05-31T17:40:14.408Z,22.20
2017-05-31T17:42:44.599Z,22.10
2017-05-31T17:45:14.831Z,22.10
2017-05-31T17:47:45.034Z,22.10
2017-05-31T17:50:15.236Z,22.00
2017-05-31T17:52:45.525Z,22.00
2017-05-31T17:55:15.754Z,21.90
2017-05-31T17:57:45.965Z,21.80
2017-05-31T18:00:16.167Z,21.70
2017-05-31T18:02:46.340Z,21.70
2017-05-31T18:05:16.541Z,21.60
2017-05-31T18:07:46.725Z,21.50
2017-05-31T18:10:16.915Z,21.40
2017-05-31T18:12:47.096Z,21.30
2017-05-31T18:15:17.299Z,21.30
2017-05-31T18:17:47.479Z,21.30
2017-05-31T18:20:17.676Z,21.20
2017-05-31T18:22:47.863Z,21.10
2017-05-31T18:25:18.067Z,21.10
2017-05-31T18:27:48.254Z,21.10
2017-05-31T18:30:18.450Z,21.00
2017-05-31T18:32:48.633Z,20.90
2017-05-31T18:35:18.824Z,20.90
2017-05-31T18:37:49.017Z,20.90
2017-05-31T18:40:19.219Z,20.90
2017-05-31T18:42:49.404Z,20.80
2017-05-31T18:45:19.644Z,20.80
2017-05-31T18:47:49.819Z,20.80
2017-05-31T18:50:20.051Z,20.60
2017-05-31T18:52:50.238Z,20.50
2017-05-31T18:55:20.481Z,20.50
2017-05-31T18:57:50.665Z,20.50
2017-05-31T19:00:20.871Z,20.40
2017-05-31T19:02:51.054Z,20.30
2017-05-31T19:05:21.301Z,20.30
2017-05-31T19:07:51.489Z,20.30
2017-05-31T19:10:21.678Z,20.20
2017-05-31T19:12:51.970Z,20.10
2017-05-31T19:15:22.164Z,20.00
2017-05-31T19:17:52.415Z,19.90
2017-05-31T19:20:22.613Z,19.80
2017-05-31T19:22:52.795Z,19.70
2017-05-31T19:25:23.011Z,19.70
2017-05-31T19:27:53.188Z,19.60
2017-05-31T19:30:23.396Z,19.50
2017-05-31T19:32:53.580Z,19.50
2017-05-31T19:35:23.771Z,19.30
2017-05-31T19:37:53.999Z,19.30
2017-05-31T19:40:24.445Z,19.20
2017-05-31T19:42:54.917Z,19.20
2017-05-31T19:45:25.105Z,19.10
2017-05-31T19:47:55.108Z,19.00
2017-05-31T19:50:25.575Z,18.90
2017-05-31T19:52:56.036Z,18.80
2017-05-31T19:55:26.504Z,18.80
2017-05-31T19:57:56.988Z,18.70
2017-05-31T20:00:27.449Z,18.70
2017-05-31T20:02:57.916Z,18.50
2017-05-31T20:05:28.372Z,18.50
2017-05-31T20:07:58.837Z,18.40
2017-05-31T20:10:29.280Z,18.30
2017-05-31T20:12:59.748Z,18.20
2017-05-31T20:15:30.201Z,18.10
2017-05-31T20:18:00.681Z,18.10
2017-05-31T20:20:30.921Z,17.90
2017-05-31T20:23:01.392Z,17.90
2017-05-31T20:25:31.835Z,17.90
2017-05-31T20:28:02.100Z,17.80
2017-05-31T20:30:32.617Z,17.70
2017-05-31T20:33:03.040Z,17.70
2017-05-31T20:35:33.545Z,17.70
2017-05-31T20:38:04.004Z,17.70
2017-05-31T20:40:34.521Z,17.60
2017-05-31T20:43:04.999Z,17.60
2017-05-31T20:45:35.467Z,17.40
2017-05-31T20:48:06.562Z,17.30
2017-05-31T20:50:37.003Z,17.30
2017-05-31T20:53:07.480Z,17.20
2017-05-31T20:55:37.928Z,17.20
2017-05-31T20:58:08.638Z,17.20
2017-05-31T21:00:39.117Z,17.10
2017-05-31T21:03:09.599Z,17.00
2017-05-31T21:05:40.043Z,17.00
2017-05-31T21:08:11.404Z,16.90
2017-05-31T21:10:41.864Z,16.90
2017-05-31T21:13:12.324Z,16.90
2017-05-31T21:15:42.769Z,16.80
2017-05-31T21:18:13.248Z,16.80
2017-05-31T21:20:43.708Z,16.70
2017-05-31T21:23:14.185Z,16.70
2017-05-31T21:25:44.636Z,16.60
2017-05-31T21:28:15.127Z,16.60
2017-05-31T21:30:45.583Z,16.60
2017-05-31T21:33:16.048Z,16.40
2017-05-31T21:35:46.496Z,16.40
2017-05-31T21:38:16.955Z,16.40
2017-05-31T21:40:47.399Z,16.30
2017-05-31T21:43:17.931Z,16.30
2017-05-31T21:45:48.384Z,16.20
2017-05-31T21:48:18.854Z,16.20
2017-05-31T21:50:49.299Z,16.20
2017-05-31T21:53:19.766Z,16.10
2017-05-31T21:55:50.235Z,16.00
2017-05-31T21:58:20.717Z,15.90
2017-05-31T22:00:51.165Z,15.90
2017-05-31T22:03:21.634Z,15.80
2017-05-31T22:05:52.089Z,15.80
2017-05-31T22:08:22.571Z,15.80
2017-05-31T22:10:53.018Z,15.80
2017-05-31T22:13:23.897Z,15.80
2017-05-31T22:15:54.447Z,15.70
2017-05-31T22:18:24.919Z,15.60
2017-05-31T22:20:55.414Z,15.50
2017-05-31T22:23:25.881Z,15.40
2017-05-31T22:25:56.328Z,15.40
2017-05-31T22:28:26.792Z,15.40
2017-05-31T22:30:57.262Z,15.40
2017-05-31T22:33:27.730Z,15.20
2017-05-31T22:35:58.192Z,15.30
2017-05-31T22:38:28.636Z,15.20
2017-05-31T22:40:59.117Z,15.10
2017-05-31T22:43:29.568Z,15.10
2017-05-31T22:46:00.050Z,15.10
2017-05-31T22:48:30.502Z,15.10
2017-05-31T22:51:00.963Z,15.00
2017-05-31T22:53:31.408Z,14.90
2017-05-31T22:56:01.876Z,14.90
2017-05-31T22:58:32.331Z,14.80
2017-05-31T23:01:02.804Z,14.80
2017-05-31T23:03:33.266Z,14.80
2017-05-31T23:06:03.724Z,14.80
2017-05-31T23:08:34.188Z,14.70
2017-05-31T23:11:04.685Z,14.70
2017-05-31T23:13:35.154Z,14.70
2017-05-31T23:16:05.616Z,14.60
2017-05-31T23:18:36.069Z,14.60
2017-05-31T23:21:06.546Z,14.50
2017-05-31T23:23:36.996Z,14.50
2017-05-31T23:26:07.463Z,14.40
2017-05-31T23:28:37.907Z,14.30
2017-05-31T23:31:08.382Z,14.20
2017-05-31T23:33:38.824Z,14.20
2017-05-31T23:36:09.293Z,14.20
2017-05-31T23:38:39.738Z,14.10
2017-05-31T23:41:10.203Z,14.10
2017-05-31T23:43:40.670Z,14.10
2017-05-31T23:46:11.128Z,14.00
2017-05-31T23:48:41.586Z,14.10
2017-05-31T23:51:12.068Z,14.00
2017-05-31T23:53:42.527Z,14.00
2017-05-31T23:56:13.000Z,13.90
2017-05-31T23:58:43.467Z,13.90
